Accueil
METAR-TAF:

METAR-TAF

Aéroports :

Base aérienne 120 Cazaux

Cazaux, France

latitude: 44-32N, longitude: 001-08W, altitude: 25 m

Observation

Le bulletin a été fait il y a 40 minutes, à 19:30 UTC
Vent 5 kt de nord/nord-ouest
Température 20°C
Humidité 64%
Pression 1017 hPa
Visibilité 10 km ou plus
pas de nuages en-dessous de 1500 mètres et pas de cumulonimbus.

METAR: LFBC 041930Z AUTO 34005KT CAVOK 20/13 Q1017

Heure: 22:10 (20:10 UTC)

Prévision

Le bulletin a été fait il y a 6 heures et 10 minutes, à 14:00 UTC
Prévision valable du 04 à 15 UTC au 05 à 15 UTC
Vent 10 kt de nord-ouest
Visibilité 10 km ou plus
pas de nuages en-dessous de 1500 mètres et pas de cumulonimbus.
Evoluant progressivement
du 04 à 22 UTC au 04 à 24 UTC
Vent 5 kt de nord/nord-est
Evoluant progressivement
du 05 à 13 UTC au 05 à 15 UTC
Vent 10 kt de nord-ouest

TAF: LFBC 041400Z 0415/0515 32010KT CAVOK BECMG 0422/0424 02005KT BECMG 0513/0515 32010KT

Observations et prévisions météorologiques de plus de 4000 aéroports (messages METAR et TAF).

Les stations disponibles sont représentées par des disques jaunes et rouges sur la carte.

Passer la souris dessus pour voir le nom de la station.

Cliquer dessus pour voir les observations et prévisions météorologiques.

Pour changer de carte: cliquez sur les boutons verts avec une croix noire pour zoomer, sur le bouton vert avec un tiret pour effectuer un zoom arrière, ou sur les flèches vertes pour les cartes adjacentes.


METAR-TAF: